Main page
METAR-TAF:

METAR-TAF

Airports :

Kuwait City, Kuwait

Kuwait International Airport

latitude: 29-13N, longitude: 047-59E, elevation: 55 m

Current weather observation

The report was made 1 hour and 0 minutes ago, at 13:00 UTC
Wind 12 kt from the East/Southeast
Temperature 21°C
Humidity 83%
Pressure 1009 hPa
Visibility: 7000 m
Few clouds at a height of 2000 ft
Scattered clouds at a height of 4000 ft
Broken clouds at a height of 8000 ft

METAR: OKBK 241300Z 11012KT 7000 FEW020 SCT040 BKN080 21/18 Q1009 NOSIG

Time: 17:00 (14:00 UTC)

Forecast

The report was made 3 hours and 15 minutes ago, at 10:45 UTC
Forecast valid from 24 at 12 UTC to 25 at 18 UTC
Wind 10 kt from the South/Southeast with gusts up to 22 kt
Visibility: 6000 m
Few clouds at a height of 4000 ft
Scattered clouds at a height of 8000 ft
Temporary
from 24 at 12 UTC to 24 at 23 UTC
Visibility: 2000 m
Few clouds at a height of 2500 ft, Cumulonimbus.

TAF: OKBK 241045Z 2412/2518 15010G22KT 6000 FEW040 SCT080 TEMPO 2412/2423 2000 TSRA/BLDU FEW025CB

Weather observations and forecasts of more than 4000 airports (METAR and TAF reports).

The available stations are represented by yellow and red dots on the map.

Hover mouse over dot to see the name of the station.

Then click to see weather observations and forecasts.

To change the map : click on the green buttons with a black cross to zoom in, on the green button with a dash to zoom out, or on the green arrows for adjacent maps.


METAR-TAF: